createdAt,value
2023-05-16T00:05:37.093Z,1.70
2023-05-16T00:15:40.154Z,1.50
2023-05-16T00:25:43.307Z,1.60
2023-05-16T00:35:46.436Z,1.60
2023-05-16T00:45:49.542Z,1.60
2023-05-16T00:55:53.072Z,1.50
2023-05-16T01:05:57.357Z,1.90
2023-05-16T01:16:24.689Z,1.60
2023-05-16T01:26:30.048Z,1.80
2023-05-16T01:36:39.243Z,1.80
2023-05-16T01:46:46.540Z,2.30
2023-05-16T01:56:55.525Z,2.60
2023-05-16T02:07:00.636Z,2.60
2023-05-16T02:17:04.037Z,2.90
2023-05-16T02:27:07.284Z,2.90
2023-05-16T02:37:13.052Z,2.70
2023-05-16T02:47:16.451Z,2.50
2023-05-16T02:57:19.702Z,2.70
2023-05-16T03:07:22.764Z,2.40
2023-05-16T03:17:28.660Z,2.30
2023-05-16T03:27:33.589Z,2.60
2023-05-16T03:37:36.706Z,2.10
2023-05-16T03:47:40.316Z,3.30
2023-05-16T03:57:43.990Z,3.10
2023-05-16T04:07:47.332Z,3.20
2023-05-16T04:17:50.400Z,2.90
2023-05-16T04:27:53.786Z,3.20
2023-05-16T04:37:57.089Z,3.00
2023-05-16T04:48:01.431Z,2.50
2023-05-16T04:58:04.576Z,2.90
2023-05-16T05:08:07.762Z,2.70
2023-05-16T05:18:11.174Z,2.00
2023-05-16T05:28:14.250Z,2.20
2023-05-16T05:38:17.329Z,1.60
2023-05-16T05:48:20.681Z,3.60
2023-05-16T05:58:23.738Z,1.80
2023-05-16T06:08:26.947Z,2.70
2023-05-16T06:18:30.175Z,1.50
2023-05-16T06:28:33.311Z,1.60
2023-05-16T06:38:36.575Z,1.60
2023-05-16T06:48:39.775Z,1.40
2023-05-16T06:58:42.818Z,1.50
2023-05-16T07:08:46.315Z,1.40
2023-05-16T07:18:49.682Z,2.30
2023-05-16T07:28:53.302Z,1.80
2023-05-16T07:38:56.459Z,1.70
2023-05-16T07:48:59.922Z,1.80
2023-05-16T07:59:06.128Z,2.10
2023-05-16T08:09:09.538Z,2.50
2023-05-16T08:19:12.752Z,2.60
2023-05-16T08:29:16.086Z,2.60
2023-05-16T08:39:19.133Z,2.40
2023-05-16T08:49:23.531Z,2.90
2023-05-16T08:59:27.310Z,2.60
2023-05-16T09:09:30.684Z,2.70
2023-05-16T09:19:41.615Z,2.20
2023-05-16T09:29:45.654Z,2.50
2023-05-16T09:39:51.184Z,2.70
2023-05-16T09:49:54.641Z,2.20
2023-05-16T10:00:01.669Z,2.20
2023-05-16T10:10:08.530Z,1.90
2023-05-16T10:20:12.952Z,2.20
2023-05-16T10:30:17.504Z,2.20
2023-05-16T10:40:22.240Z,2.80
2023-05-16T10:50:35.743Z,2.50
2023-05-16T11:00:39.925Z,3.00
2023-05-16T11:10:43.015Z,3.50
2023-05-16T11:20:46.190Z,2.50
2023-05-16T11:30:52.681Z,2.50
2023-05-16T11:41:02.330Z,3.00
2023-05-16T11:51:06.985Z,3.70
2023-05-16T12:01:10.455Z,3.20
2023-05-16T12:11:14.284Z,2.60
2023-05-16T12:21:17.572Z,3.40
2023-05-16T12:31:30.994Z,2.70
2023-05-16T12:41:42.329Z,2.90
2023-05-16T12:51:50.518Z,3.10
2023-05-16T13:01:53.979Z,3.10
2023-05-16T13:11:57.125Z,3.20
2023-05-16T13:22:00.403Z,3.70
2023-05-16T13:32:03.664Z,3.20
2023-05-16T13:42:06.764Z,3.10
2023-05-16T13:52:09.926Z,3.20
2023-05-16T14:02:12.927Z,2.30
2023-05-16T14:12:16.156Z,3.60
2023-05-16T14:22:19.530Z,4.10
2023-05-16T14:32:22.885Z,2.70
2023-05-16T14:42:26.153Z,4.10
2023-05-16T14:52:29.656Z,3.30
2023-05-16T15:02:32.742Z,5.10
2023-05-16T15:12:36.449Z,4.90
2023-05-16T15:22:41.349Z,5.00
2023-05-16T15:32:44.909Z,7.00
2023-05-16T15:42:48.157Z,5.70
2023-05-16T15:52:51.456Z,4.60
2023-05-16T16:02:54.783Z,4.40
2023-05-16T16:13:04.891Z,8.40
2023-05-16T16:23:08.387Z,6.20
2023-05-16T16:33:11.501Z,4.60
2023-05-16T16:43:15.055Z,5.60
2023-05-16T16:53:18.997Z,8.50
2023-05-16T17:03:22.220Z,10.80
2023-05-16T17:13:25.420Z,8.20
2023-05-16T17:23:28.819Z,5.70
2023-05-16T17:33:32.040Z,10.30
2023-05-16T17:43:35.147Z,6.30
2023-05-16T17:53:38.626Z,10.20
2023-05-16T18:03:43.498Z,11.70
2023-05-16T18:13:47.179Z,6.60
2023-05-16T18:23:50.498Z,6.40
2023-05-16T18:33:53.909Z,3.90
2023-05-16T18:43:57.045Z,4.40
2023-05-16T18:54:00.394Z,4.30
2023-05-16T19:04:04.064Z,5.10
2023-05-16T19:14:33.017Z,4.00
2023-05-16T19:24:38.048Z,3.80
2023-05-16T19:35:15.090Z,5.30
2023-05-16T19:55:37.891Z,5.90
2023-05-16T20:05:41.644Z,4.90
2023-05-16T20:15:44.896Z,5.40
2023-05-16T20:25:48.178Z,5.00
2023-05-16T20:35:53.729Z,4.10
2023-05-16T20:45:57.139Z,3.40
2023-05-16T20:56:00.592Z,4.20
2023-05-16T21:06:03.983Z,4.40
2023-05-16T21:16:07.488Z,5.70
2023-05-16T21:26:10.688Z,7.40
2023-05-16T21:36:13.782Z,8.00
2023-05-16T21:46:16.836Z,6.70
2023-05-16T21:56:20.250Z,6.50
2023-05-16T22:06:24.469Z,6.40
2023-05-16T22:16:27.512Z,7.30
2023-05-16T22:26:30.660Z,7.50
2023-05-16T22:36:33.862Z,8.30
2023-05-16T22:46:37.085Z,8.20
2023-05-16T22:56:40.304Z,7.90
2023-05-16T23:06:43.350Z,7.80
2023-05-16T23:16:46.402Z,8.00
2023-05-16T23:26:49.725Z,7.90
2023-05-16T23:36:52.804Z,8.00
2023-05-16T23:46:55.995Z,7.00
2023-05-16T23:56:59.250Z,6.50
